ěÝzenÝ letovÚho provozu ╚eskÚ republiky
Letiste: LKBC Aktualizace: 13.06.2021 22:25:26  UTC
 METAR LKBC 13.06. 22:30 ...
METAR LKBC 132230Z AUTO 00000KT CAVOK 09/05 Q1026=